< < Back
Terminal Aerodrome Forecast


Current Version              Previous Versions:   1  2  3  4  5  6  7  8  9  

Terminal Aerodrome Forecast

712
FTUS42 KILM 050400 AAA
TAFILM
TAF AMD
KILM 050405Z 0504/0524 20013G22KT P6SM SCT009
      TEMPO 0504/0506 BKN009
     FM050600 21009KT 2SM BR BKN007 WS010/22035KT
     FM051400 23010G18KT P6SM VCSH SCT010 SCT035
     FM052100 36014G23KT P6SM -RA OVC012=



Latest METAR

867
SAUS70 KWBC 050400 RRB
MTRILM
METAR KILM 050353Z 22014G21KT 10SM SCT011 19/18 A3000 RMK AO2 PK WND
21026/0258 SLP158 T01940178


USA.gov is the U.S. government's official web portal to all federal, state and local government web resources and services.